West Point, Iowa
Current Conditions -  °F | °C
As of 1:35 PM on Monday 22 Dec 2014 (Local Time) from KFSW Reporting Station
Haze Haze  
Wind Chill: 36°   Ceiling: 300
Heat Index: 41°   Visibility: 1.7mi
Dew Point: 41°   Wind: 8mph
Humidity: 100%   Direction: 140°SE
Pressure: 29.57"   Gusts: NA
Location:  40.72°N, 91.45°W
Report Text: KFSW 221935Z AUTO 14007KT 1 3/4SM BR OVC003 05/05 A2957 RMK AO2 P0001
Loading
Personal Weather Stations






























Interactive Weather Map New forecast layout! Learn more

10-Day Weather Forecast

Advertisements
Track Severe Weather on mobile